Flight Track Log - Related Links

Times and Time Zones

All times are in EDT time to prevent confusion due to time zone crossing. See the N720QS flight status page for this flight to view local times or setup timezone preferences in your user account.

Time Position Orientation Groundspeed Altitude Reporting Facility
EDT Latitude Longitude Course Direction KTS MPH feet Rate Location/Type
Wed 05:33:39 PM 42.3500 -71.0167 132° Southeast 173 199 600  Level KA90
Wed 05:34:45 PM 42.3167 -70.9667 132° Southeast 241 277 3,100 2,571 Climbing KA90
Wed 05:35:45 PM 42.3167 -70.8667 90° East 295 339 6,000 3,029 Climbing KA90
Wed 05:36:30 PM 42.3383 -70.7886 69° East 297 342 8,400 2,857 Climbing Boston Center
Wed 05:37:30 PM 42.4083 -70.7306 31° Northeast 321 369 11,000 2,350 Climbing Boston Center
Wed 05:38:30 PM 42.5036 -70.6969 15° North 321 369 13,100 1,500 Climbing Boston Center
Wed 05:39:30 PM 42.6075 -70.6658 12° North 367 422 14,000 1,650 Climbing Boston Center
Wed 05:40:30 PM 42.7092 -70.6375 12° North 375 432 16,400 2,400 Climbing Boston Center
Wed 05:41:30 PM 42.8006 -70.6178 North 375 432 18,800 2,350 Climbing Boston Center
Wed 05:42:30 PM 42.9194 -70.6169 360° North 375 432 21,100 1,800 Climbing Boston Center
Wed 05:43:30 PM 43.0297 -70.6139 North 376 433 22,400 1,350 Climbing Boston Center
Wed 05:44:30 PM 43.1464 -70.6158 359° North 399 459 23,800 1,400 Climbing Boston Center
Wed 05:45:30 PM 43.2314 -70.7047 323° Northwest 366 421 25,200 1,350 Climbing Boston Center
Wed 05:46:30 PM 43.2356 -70.8556 272° West 334 384 26,500 1,350 Climbing Boston Center
Wed 05:47:30 PM 43.2375 -71.0067 271° West 353 406 27,900 1,400 Climbing Boston Center
Wed 05:48:30 PM 43.2394 -71.1633 271° West 390 449 29,300 1,400 Climbing Boston Center
Wed 05:49:30 PM 43.2389 -71.3172 270° West 400 460 30,700 1,400 Climbing Boston Center
Wed 05:50:30 PM 43.2403 -71.4683 271° West 405 466 32,100 1,400 Climbing Boston Center
Wed 05:51:30 PM 43.2394 -71.6192 270° West 405 466 33,500 1,400 Climbing Boston Center
Wed 05:52:30 PM 43.2383 -71.7647 269° West 405 466 34,900 1,200 Climbing Boston Center
Wed 05:53:30 PM 43.2389 -71.8986 270° West 400 460 35,900 550 Climbing Boston Center
Wed 05:54:30 PM 43.2397 -72.0467 270° West 400 460 36,000 50 Climbing Boston Center
Wed 05:55:30 PM 43.2400 -72.2006 270° West 405 466 36,000  Level Boston Center
Wed 05:56:41 PM 43.2403 -72.3631 270° West 410 472 36,000  Level Boston Center
Wed 05:57:42 PM 43.2381 -72.5514 269° West 420 483 36,000  Level Boston Center
Wed 05:58:42 PM 43.2378 -72.7081 270° West 420 483 36,000  Level Boston Center
Wed 05:59:42 PM 43.2375 -72.8619 270° West 415 478 36,000  Level Boston Center
Wed 06:00:42 PM 43.2367 -73.0131 270° West 410 472 36,000  Level Boston Center
Wed 06:01:42 PM 43.2464 -73.1642 275° West 400 460 36,000  Level Boston Center
Wed 06:02:41 PM 43.2539 -73.2839 275° West 400 460 36,000  Level Boston Center
Wed 06:03:54 PM 43.2667 -73.4981 275° West 388 447 36,000  Level Boston Center
Wed 06:04:54 PM 43.2797 -73.6436 277° West 388 447 36,000  Level Boston Center
Wed 06:05:54 PM 43.2889 -73.7722 276° West 388 447 36,000  Level Boston Center
Wed 06:06:54 PM 43.2994 -73.9178 276° West 388 447 36,000  Level Boston Center
Wed 06:07:54 PM 43.3100 -74.0608 276° West 388 447 36,000 303 Level Boston Center
Wed 06:08:53 PM 43.3189 -74.1753 276° West 382 440 36,600 850 Climbing Boston Center
Wed 06:09:54 PM 43.3308 -74.3411 276° West 377 434 37,700 700 Climbing Boston Center
Wed 06:10:53 PM 43.3414 -74.4556 277° West 377 434 38,000 150 Climbing Boston Center
Wed 06:11:54 PM 43.3528 -74.6272 275° West 377 434 38,000  Level Boston Center
Wed 06:12:54 PM 43.3622 -74.7761 275° West 384 442 38,000  Level Boston Center
Wed 06:13:54 PM 43.3736 -74.9253 276° West 391 450 38,000  Level Boston Center
Wed 06:14:54 PM 43.3850 -75.0714 276° West 391 450 38,000  Level Boston Center
Wed 06:15:54 PM 43.3933 -75.2489 274° West 405 466 38,000  Level Boston Center
Wed 06:16:54 PM 43.4061 -75.4039 277° West 412 474 38,000  Level Boston Center
Wed 06:17:54 PM 43.4147 -75.5531 275° West 406 467 38,000  Level Boston Center
Wed 06:18:54 PM 43.4231 -75.6992 275° West 396 456 38,000  Level Boston Center
Wed 06:21:14 PM 43.4167 -76.0000 268° West 390 449 38,000  Level Toronto Center
Wed 06:22:14 PM 43.4500 -76.1667 285° West 390 449 38,000  Level Toronto Center
Wed 06:23:14 PM 43.4500 -76.3000 270° West 380 437 38,000  Level Toronto Center
Wed 06:24:14 PM 43.4500 -76.4667 270° West 390 449 38,000  Level Toronto Center
Wed 06:25:14 PM 43.4500 -76.6000 270° West 380 437 38,000  Level Toronto Center
Wed 06:26:14 PM 43.4833 -76.7667 285° West 390 449 38,000 51 Level Toronto Center
Wed 06:27:12 PM 43.4881 -76.9178 273° West 384 442 38,100 305 Climbing Cleveland Center
Wed 06:28:12 PM 43.4967 -77.0631 275° West 384 442 38,600 500 Climbing Cleveland Center
Wed 06:29:12 PM 43.5011 -77.2117 272° West 384 442 39,100 500 Climbing Cleveland Center
Wed 06:30:12 PM 43.5094 -77.3544 275° West 384 442 39,600 450 Climbing Cleveland Center
Wed 06:31:12 PM 43.5153 -77.4944 273° West 379 436 40,000 200 Climbing Cleveland Center
Wed 06:32:12 PM 43.5211 -77.6372 273° West 379 436 40,000  Level Cleveland Center
Wed 06:33:12 PM 43.5289 -77.7803 274° West 379 436 40,000  Level Cleveland Center
Wed 06:34:12 PM 43.5344 -77.9289 273° West 384 442 40,000  Level Cleveland Center
Wed 06:35:12 PM 43.5397 -78.0747 273° West 384 442 40,000  Level Cleveland Center
Wed 06:36:12 PM 43.5469 -78.2175 274° West 384 442 40,000  Level Cleveland Center
Wed 06:37:12 PM 43.5517 -78.3550 273° West 384 442 40,000  Level Cleveland Center
Wed 06:38:12 PM 43.5544 -78.4981 272° West 379 436 40,000  Level Cleveland Center
Wed 06:39:12 PM 43.5608 -78.6381 274° West 379 436 40,000  Level Cleveland Center
Wed 06:40:14 PM 43.5500 -78.7667 263° West 370 426 40,000  Level Toronto Center
Wed 06:41:14 PM 43.5667 -78.9000 280° West 360 414 40,000  Level Toronto Center
Wed 06:42:14 PM 43.5667 -79.0333 270° West 360 414 40,000  Level Toronto Center
Wed 06:43:14 PM 43.5667 -79.1667 270° West 360 414 40,000  Level Toronto Center
Wed 06:44:14 PM 43.5667 -79.3167 270° West 360 414 40,000  Level Toronto Center
Wed 06:45:14 PM 43.5667 -79.4500 270° West 350 403 40,000  Level Toronto Center
Wed 06:46:14 PM 43.5833 -79.5833 280° West 370 426 40,000  Level Toronto Center
Wed 06:47:14 PM 43.5833 -79.7333 270° West 360 414 40,000  Level Toronto Center
Wed 06:48:14 PM 43.5833 -79.8667 270° West 360 414 40,000  Level Toronto Center
Wed 06:49:14 PM 43.5833 -80.0000 270° West 360 414 40,000  Level Toronto Center
Wed 06:50:14 PM 43.5833 -80.1333 270° West 360 414 40,000  Level Toronto Center
Wed 06:51:14 PM 43.6000 -80.2833 279° West 360 414 40,000  Level Toronto Center
Wed 06:52:14 PM 43.6000 -80.4167 270° West 360 414 40,000  Level Toronto Center
Wed 06:53:14 PM 43.6000 -80.5500 270° West 350 403 40,000  Level Toronto Center
Wed 06:54:14 PM 43.6000 -80.7000 270° West 360 414 40,000  Level Toronto Center
Wed 06:55:14 PM 43.6000 -80.8333 270° West 360 414 40,000  Level Toronto Center
Wed 06:56:14 PM 43.6000 -80.9667 270° West 360 414 40,000  Level Toronto Center
Wed 06:57:14 PM 43.6000 -81.1000 270° West 370 426 40,000  Level Toronto Center
Wed 06:58:14 PM 43.6000 -81.2500 270° West 370 426 40,000  Level Toronto Center
Wed 06:59:14 PM 43.6000 -81.3833 270° West 370 426 40,000  Level Toronto Center
Wed 07:00:14 PM 43.6167 -81.5167 280° West 370 426 40,000  Level Toronto Center
Wed 07:01:14 PM 43.6167 -81.6667 270° West 370 426 40,000  Level Toronto Center
Wed 07:02:14 PM 43.6167 -81.8167 270° West 370 426 40,000  Level Toronto Center
Wed 07:03:14 PM 43.6000 -81.9667 261° West 370 426 40,000  Level Toronto Center
Wed 07:04:14 PM 43.6000 -82.1000 270° West 370 426 40,000  Level Toronto Center
Wed 07:04:48 PM 43.6222 -82.1889 289° West 370 426 40,000  Level Cleveland Center
Wed 07:05:48 PM 43.6244 -82.3325 271° West 370 426 40,000  Level Cleveland Center
Wed 07:06:48 PM 43.6222 -82.4758 269° West 375 432 40,000  Level Cleveland Center
Wed 07:07:48 PM 43.6239 -82.6164 271° West 375 432 40,000  Level Cleveland Center
Wed 07:08:48 PM 43.6233 -82.7597 270° West 375 432 40,000  Level Cleveland Center
Wed 07:09:48 PM 43.6247 -82.9031 271° West 375 432 40,000  Level Cleveland Center
Wed 07:10:48 PM 43.6217 -83.0464 268° West 375 432 40,000  Level Cleveland Center
Wed 07:11:48 PM 43.6208 -83.1869 270° West 375 432 40,000  Level Cleveland Center
Wed 07:12:48 PM 43.6197 -83.3303 269° West 375 432 40,000  Level Cleveland Center
Wed 07:14:14 PM 43.6167 -83.5333 269° West 370 426 40,000  Level Toronto Center
Wed 07:15:14 PM 43.6167 -83.6667 270° West 370 426 40,000  Level Toronto Center
Wed 07:15:59 PM 43.6156 -83.7550 269° West 370 426 40,000  Level Minneapolis Center
Wed 07:17:01 PM 43.6147 -83.8956 270° West 369 425 40,000  Level Minneapolis Center
Wed 07:18:03 PM 43.6122 -84.0653 269° West 368 423 40,000  Level Minneapolis Center
Wed 07:19:05 PM 43.6103 -84.2042 269° West 365 420 40,000  Level Minneapolis Center
Wed 07:20:07 PM 43.6083 -84.3436 269° West 364 419 40,000  Level Minneapolis Center
Wed 07:21:09 PM 43.6067 -84.4794 269° West 359 413 40,000  Level Minneapolis Center
Wed 07:21:59 PM 43.6044 -84.5892 268° West 358 412 40,000  Level Minneapolis Center
Wed 07:23:01 PM 43.6014 -84.7517 269° West 356 410 40,000  Level Minneapolis Center
Wed 07:24:03 PM 43.5986 -84.8856 268° West 353 406 40,000  Level Minneapolis Center
Wed 07:25:05 PM 43.5967 -85.0197 269° West 352 405 40,000  Level Minneapolis Center
Wed 07:26:07 PM 43.5939 -85.1544 268° West 353 406 40,000  Level Minneapolis Center
Wed 07:27:09 PM 43.5914 -85.2875 269° West 352 405 40,000  Level Minneapolis Center
Wed 07:28:11 PM 43.5875 -85.4192 268° West 349 402 40,000  Level Minneapolis Center
Wed 07:29:14 PM 43.5836 -85.5781 268° West 348 400 40,000  Level Minneapolis Center
Wed 07:30:16 PM 43.5800 -85.7100 268° West 347 399 40,000  Level Minneapolis Center
Wed 07:31:18 PM 43.5764 -85.8422 268° West 348 400 40,000  Level Minneapolis Center
Wed 07:32:20 PM 43.5722 -85.9753 268° West 350 403 40,000  Level Minneapolis Center
Wed 07:33:22 PM 43.5681 -86.1089 268° West 351 404 40,000  Level Minneapolis Center
Wed 07:34:24 PM 43.5633 -86.2703 268° West 353 406 40,000  Level Minneapolis Center
Wed 07:35:26 PM 43.5583 -86.4056 267° West 355 409 40,000  Level Minneapolis Center
Wed 07:36:28 PM 43.5544 -86.5442 268° West 361 415 40,000  Level Minneapolis Center
Wed 07:37:30 PM 43.5489 -86.6822 267° West 362 417 40,000  Level Minneapolis Center
Wed 07:38:32 PM 43.5433 -86.8222 267° West 366 421 40,000  Level Minneapolis Center
Wed 07:39:34 PM 43.5381 -86.9900 268° West 367 422 40,000  Level Minneapolis Center
Wed 07:40:36 PM 43.5325 -87.1314 267° West 371 427 40,000  Level Minneapolis Center
Wed 07:41:38 PM 43.5256 -87.2764 266° West 378 435 40,000  Level Minneapolis Center
Wed 07:42:40 PM 43.5117 -87.4225 263° West 378 435 40,000  Level Minneapolis Center
Wed 07:43:42 PM 43.4958 -87.5656 261° West 378 435 40,000  Level Minneapolis Center
Wed 07:44:44 PM 43.4758 -87.7319 261° West 377 434 40,000  Level Minneapolis Center
Wed 07:45:47 PM 43.4594 -87.8775 261° West 383 441 40,000  Level Minneapolis Center
Wed 07:46:49 PM 43.4425 -88.0233 261° West 385 443 40,000  Level Minneapolis Center
Wed 07:47:51 PM 43.4253 -88.1678 261° West 384 442 40,000  Level Minneapolis Center
Wed 07:48:53 PM 43.4078 -88.3142 261° West 387 445 40,000  Level Minneapolis Center
Wed 07:49:55 PM 43.3889 -88.4711 261° West 387 445 40,000  Level Minneapolis Center
Wed 07:50:57 PM 43.3689 -88.6142 259° West 385 443 40,000  Level Minneapolis Center
Wed 07:51:59 PM 43.3528 -88.7672 262° West 396 456 40,000  Level Minneapolis Center
Wed 07:53:01 PM 43.3319 -88.9397 261° West 393 452 40,000  Level Minneapolis Center
Wed 07:54:03 PM 43.3131 -89.0892 260° West 395 455 40,000  Level Minneapolis Center
Wed 07:55:05 PM 43.2944 -89.2369 260° West 395 455 40,000  Level Minneapolis Center
Wed 07:56:07 PM 43.2747 -89.3853 260° West 395 455 40,000  Level Minneapolis Center
Wed 07:57:09 PM 43.2547 -89.5333 260° West 394 453 40,000  Level Minneapolis Center
Wed 07:58:11 PM 43.2328 -89.7061 260° West 396 456 40,000  Level Minneapolis Center
Wed 07:59:13 PM 43.2125 -89.8542 259° West 396 456 40,000  Level Minneapolis Center
Wed 08:00:15 PM 43.1928 -90.0022 260° West 395 455 40,000  Level Minneapolis Center
Wed 08:01:17 PM 43.1725 -90.1514 259° West 397 457 40,000  Level Minneapolis Center
Wed 08:02:19 PM 43.1519 -90.3011 259° West 396 456 40,000  Level Minneapolis Center
Wed 08:03:21 PM 43.1319 -90.4481 259° West 397 457 40,000  Level Minneapolis Center
Wed 08:04:23 PM 43.1117 -90.5947 259° West 398 458 40,000  Level Minneapolis Center
Wed 08:05:26 PM 43.0867 -90.7711 259° West 398 458 40,000  Level Minneapolis Center
Wed 08:06:05 PM 43.0750 -90.8597 260° West 397 457 40,000  Level Chicago Center
Wed 08:07:07 PM 43.0528 -91.0086 259° West 403 464 40,000  Level Chicago Center
Wed 08:08:09 PM 43.0336 -91.1561 260° West 400 460 40,000  Level Chicago Center
Wed 08:09:11 PM 43.0069 -91.3342 258° West 404 465 40,000  Level Chicago Center
Wed 08:10:12 PM 42.9864 -91.4819 259° West 404 465 40,000  Level Chicago Center
Wed 08:11:14 PM 42.9636 -91.6294 258° West 405 466 40,000  Level Chicago Center
Wed 08:12:16 PM 42.9408 -91.7767 258° West 406 467 40,000  Level Chicago Center
Wed 08:13:18 PM 42.9139 -91.9525 258° West 410 472 40,000  Level Chicago Center
Wed 08:14:20 PM 42.8900 -92.1008 258° West 408 470 40,000  Level Chicago Center
Wed 08:15:21 PM 42.8672 -92.2486 258° West 405 466 40,000  Level Chicago Center
Wed 08:16:23 PM 42.8447 -92.3978 258° West 407 468 40,000  Level Chicago Center
Wed 08:17:25 PM 42.8197 -92.5478 257° West 410 472 40,000  Level Chicago Center
Wed 08:18:27 PM 42.7911 -92.7275 258° West 410 472 40,000  Level Chicago Center
Wed 08:19:29 PM 42.7678 -92.8797 258° West 415 478 40,000  Level Chicago Center
Wed 08:20:31 PM 42.7428 -93.0297 257° West 412 474 40,000  Level Chicago Center
Wed 08:21:33 PM 42.7186 -93.1786 258° West 409 471 40,000  Level Chicago Center
Wed 08:22:34 PM 42.6933 -93.3297 257° West 413 475 40,000  Level Chicago Center
Wed 08:23:36 PM 42.6636 -93.5086 257° West 411 473 40,000  Level Chicago Center
Wed 08:24:40 PM 42.6403 -93.6586 258° West 408 470 40,000  Level Minneapolis Center
Wed 08:25:42 PM 42.6156 -93.8081 257° West 410 472 40,000  Level Minneapolis Center
Wed 08:26:44 PM 42.5861 -93.9608 255° West 418 481 40,000  Level Minneapolis Center
Wed 08:27:46 PM 42.5558 -94.1406 257° West 414 476 40,000  Level Minneapolis Center
Wed 08:28:48 PM 42.5317 -94.2894 258° West 411 473 40,000  Level Minneapolis Center
Wed 08:29:50 PM 42.5056 -94.4381 257° West 410 472 40,000  Level Minneapolis Center
Wed 08:30:53 PM 42.4744 -94.6117 256° West 414 476 40,000  Level Minneapolis Center
Wed 08:31:55 PM 42.4511 -94.7428 256° West 413 475 40,000  Level Minneapolis Center
Wed 08:32:57 PM 42.4236 -94.8939 256° West 415 478 40,000  Level Minneapolis Center
Wed 08:33:59 PM 42.3903 -95.0767 256° West 418 481 40,000  Level Minneapolis Center
Wed 08:35:01 PM 42.3628 -95.2300 256° West 421 484 40,000  Level Minneapolis Center
Wed 08:36:03 PM 42.3344 -95.3767 255° West 410 472 40,000  Level Minneapolis Center
Wed 08:37:05 PM 42.3058 -95.5281 256° West 413 475 40,000  Level Minneapolis Center
Wed 08:38:07 PM 42.2772 -95.6828 256° West 421 484 40,000  Level Minneapolis Center
Wed 08:39:09 PM 42.2428 -95.8656 256° West 421 484 40,000  Level Minneapolis Center
Wed 08:40:12 PM 42.2133 -96.0200 256° West 426 490 40,000  Level Minneapolis Center
Wed 08:41:14 PM 42.1839 -96.1731 255° West 426 490 40,000  Level Minneapolis Center
Wed 08:42:16 PM 42.1544 -96.3247 255° West 422 486 40,000  Level Minneapolis Center
Wed 08:43:18 PM 42.1239 -96.4794 255° West 428 493 40,000  Level Minneapolis Center
Wed 08:44:20 PM 42.0875 -96.6636 255° West 427 491 40,000  Level Minneapolis Center
Wed 08:45:21 PM 42.0633 -96.7858 255° West 426 490 40,000  Level Minneapolis Center
Wed 08:46:24 PM 42.0272 -96.9689 255° West 424 488 40,000  Level Minneapolis Center
Wed 08:47:26 PM 41.9950 -97.1231 254° West 426 490 40,000  Level Minneapolis Center
Wed 08:48:28 PM 41.9644 -97.2756 255° West 427 491 40,000  Level Minneapolis Center
Wed 08:49:30 PM 41.9331 -97.4297 255° West 428 493 40,000  Level Minneapolis Center
Wed 08:50:32 PM 41.8939 -97.6122 254° West 426 490 40,000  Level Minneapolis Center
Wed 08:51:34 PM 41.8631 -97.7656 255° West 427 491 40,000  Level Minneapolis Center
Wed 08:52:37 PM 41.8308 -97.9169 254° West 426 490 40,000  Level Minneapolis Center
Wed 08:53:39 PM 41.7986 -98.0683 254° West 425 489 40,000  Level Minneapolis Center
Wed 08:54:41 PM 41.7669 -98.2183 254° West 422 486 40,000  Level Minneapolis Center
Wed 08:55:43 PM 41.7289 -98.3978 254° West 420 483 40,000  Level Minneapolis Center
Wed 08:56:45 PM 41.6958 -98.5494 254° West 423 487 40,000  Level Minneapolis Center
Wed 08:57:47 PM 41.6636 -98.6994 254° West 423 487 40,000  Level Minneapolis Center
Wed 08:58:49 PM 41.6306 -98.8497 254° West 423 487 40,000  Level Minneapolis Center
Wed 08:59:51 PM 41.5967 -99.0003 253° West 425 489 40,000  Level Minneapolis Center
Wed 09:00:36 PM 41.5700 -99.1219 254° West 427 491 40,000  Level Denver Center
Wed 09:01:38 PM 41.5364 -99.2722 253° West 427 491 40,000  Level Denver Center
Wed 09:02:40 PM 41.5019 -99.4222 253° West 426 490 40,000  Level Denver Center
Wed 09:03:41 PM 41.4611 -99.6028 253° West 427 491 40,000  Level Denver Center
Wed 09:04:43 PM 41.4267 -99.7533 253° West 426 490 40,000  Level Denver Center
Wed 09:05:44 PM 41.3894 -99.9131 253° West 429 494 40,000  Level Denver Center
Wed 09:06:46 PM 41.3575 -100.0575 254° West 427 491 40,000  Level Denver Center
Wed 09:07:48 PM 41.3236 -100.2019 253° West 429 494 40,000  Level Denver Center
Wed 09:08:49 PM 41.2850 -100.3675 253° West 423 487 40,000  Level Denver Center
Wed 09:09:51 PM 41.2508 -100.5100 252° West 424 488 40,000  Level Denver Center
Wed 09:10:52 PM 41.2111 -100.6739 252° West 423 487 40,000  Level Denver Center
Wed 09:11:54 PM 41.1781 -100.8161 253° West 425 489 40,000  Level Denver Center
Wed 09:12:56 PM 41.1369 -100.9808 252° West 426 490 40,000  Level Denver Center
Wed 09:13:57 PM 41.1033 -101.1242 253° West 428 493 40,000  Level Denver Center
Wed 09:14:59 PM 41.0617 -101.2864 251° West 424 488 40,000  Level Denver Center
Wed 09:16:00 PM 41.0272 -101.4267 252° West 422 486 40,000  Level Denver Center
Wed 09:17:02 PM 40.9853 -101.5919 251° West 426 490 40,000  Level Denver Center
Wed 09:18:04 PM 40.9511 -101.7331 252° West 423 487 40,000  Level Denver Center
Wed 09:19:05 PM 40.9167 -101.8731 252° West 420 483 40,000  Level Denver Center
Wed 09:20:07 PM 40.8711 -102.0353 250° West 423 487 40,000  Level Denver Center
Wed 09:21:08 PM 40.8094 -102.1639 238° Southwest 433 498 40,000  Level Denver Center
Wed 09:22:10 PM 40.7392 -102.3144 238° Southwest 432 497 40,000  Level Denver Center
Wed 09:23:12 PM 40.6800 -102.4458 239° Southwest 436 502 40,000  Level Denver Center
Wed 09:24:13 PM 40.6103 -102.5997 239° Southwest 438 504 40,000  Level Denver Center
Wed 09:25:15 PM 40.5511 -102.7408 241° Southwest 440 506 40,000  Level Denver Center
Wed 09:26:16 PM 40.5142 -102.8900 252° West 431 496 40,000  Level Denver Center
Wed 09:27:18 PM 40.4769 -103.0386 252° West 429 494 40,000  Level Denver Center
Wed 09:28:20 PM 40.4397 -103.1883 252° West 432 497 40,000  Level Denver Center
Wed 09:29:21 PM 40.4097 -103.3078 252° West 433 498 40,000  Level Denver Center
Wed 09:30:23 PM 40.3639 -103.4861 251° West 432 497 40,000  Level Denver Center
Wed 09:31:25 PM 40.3178 -103.6653 251° West 435 501 40,000  Level Denver Center
Wed 09:32:26 PM 40.2803 -103.8181 252° West 442 509 40,000  Level Denver Center
Wed 09:33:28 PM 40.2400 -103.9683 251° West 437 503 40,000  Level Denver Center
Wed 09:34:29 PM 40.2006 -104.1194 251° West 442 509 40,000  Level Denver Center
Wed 09:35:31 PM 40.1608 -104.2692 251° West 438 504 40,000  Level Denver Center
Wed 09:36:33 PM 40.1206 -104.4247 251° West 452 520 40,000  Level Denver Center
Wed 09:37:34 PM 40.0803 -104.5761 251° West 447 514 40,000  Level Denver Center
Wed 09:38:36 PM 40.0314 -104.7639 251° West 455 524 40,000  Level Denver Center
Wed 09:39:38 PM 39.9894 -104.9197 251° West 460 529 40,000  Level Denver Center
Wed 09:40:39 PM 39.9469 -105.0703 250° West 447 514 40,000  Level Denver Center
Wed 09:41:41 PM 39.9042 -105.2261 250° West 461 531 40,000  Level Denver Center
Wed 09:42:42 PM 39.8617 -105.3797 250° West 450 518 40,000  Level Denver Center
Wed 09:43:44 PM 39.8189 -105.5339 250° West 456 525 40,000  Level Denver Center
Wed 09:44:46 PM 39.7681 -105.7156 250° West 446 513 40,000  Level Denver Center
Wed 09:45:47 PM 39.7269 -105.8656 250° West 438 504 40,000  Level Denver Center
Wed 09:46:49 PM 39.6836 -106.0211 250° West 457 526 40,000  Level Denver Center
Wed 09:47:50 PM 39.6414 -106.1669 249° West 461 531 40,000  Level Denver Center
Wed 09:48:52 PM 39.5975 -106.3203 250° West 455 524 40,000  Level Denver Center
Wed 09:49:54 PM 39.5536 -106.4742 250° West 456 525 40,000  Level Denver Center
Wed 09:50:55 PM 39.5000 -106.6594 249° West 453 521 40,000  Level Denver Center
Wed 09:51:57 PM 39.4650 -106.7817 250° West 454 522 40,000  Level Denver Center
Wed 09:52:59 PM 39.4128 -106.9514 248° West 455 524 40,000  Level Denver Center
Wed 09:54:00 PM 39.3658 -107.1214 250° West 452 520 40,000  Level Denver Center
Wed 09:55:14 PM 39.3211 -107.2697 249° West 459 528 40,000  Level Denver Center
Wed 09:56:16 PM 39.2631 -107.4639 249° West 455 524 40,000  Level Denver Center
Wed 09:57:17 PM 39.2181 -107.6128 249° West 461 531 40,000  Level Denver Center
Wed 09:58:19 PM 39.1669 -107.7847 249° West 458 527 40,000  Level Denver Center
Wed 09:59:21 PM 39.1236 -107.9306 249° West 457 526 40,000  Level Denver Center
Wed 10:00:23 PM 39.0717 -108.0994 248° West 453 521 40,000  Level Denver Center
Wed 10:01:24 PM 39.0267 -108.2431 248° West 452 520 40,000  Level Denver Center
Wed 10:02:26 PM 38.9811 -108.3942 249° West 469 540 40,000  Level Denver Center
Wed 10:03:27 PM 38.9275 -108.5667 248° West 463 533 40,000  Level Denver Center
Wed 10:04:29 PM 38.8839 -108.7089 249° West 448 516 40,000  Level Denver Center
Wed 10:05:31 PM 38.8317 -108.8758 248° West 450 518 40,000  Level Denver Center
Wed 10:06:32 PM 38.7864 -109.0200 248° West 454 522 40,000  Level Denver Center
Wed 10:07:34 PM 38.7411 -109.1619 248° West 451 519 40,000  Level Denver Center
Wed 10:08:36 PM 38.6886 -109.3272 248° West 448 516 40,000  Level Denver Center
Wed 10:09:37 PM 38.6517 -109.4456 248° West 448 516 40,000  Level Denver Center
Wed 10:10:39 PM 38.5917 -109.6294 247° West 434 499 40,000  Level Denver Center
Wed 10:11:41 PM 38.5469 -109.7658 247° West 435 501 40,000  Level Denver Center
Wed 10:12:43 PM 38.4953 -109.9264 248° West 433 498 40,000  Level Denver Center
Wed 10:13:44 PM 38.4514 -110.0603 247° West 426 490 40,000  Level Denver Center
Wed 10:14:46 PM 38.4075 -110.1967 248° West 431 496 40,000  Level Denver Center
Wed 10:15:31 PM 38.3706 -110.3081 247° West 428 493 40,000  Level Salt Lake Center
Wed 10:16:33 PM 38.3194 -110.4644 247° West 428 493 40,000  Level Salt Lake Center
Wed 10:17:34 PM 38.2750 -110.5981 247° West 427 491 40,000  Level Salt Lake Center
Wed 10:18:36 PM 38.2308 -110.7311 247° West 426 490 40,000  Level Salt Lake Center
Wed 10:19:38 PM 38.1794 -110.8869 247° West 427 491 40,000  Level Salt Lake Center
Wed 10:20:39 PM 38.1386 -111.0058 246° West 426 490 40,000  Level Salt Lake Center
Wed 10:21:41 PM 38.0828 -111.1717 247° West 426 490 40,000  Level Salt Lake Center
Wed 10:22:42 PM 38.0353 -111.3111 247° West 429 494 40,000  Level Salt Lake Center
Wed 10:23:44 PM 37.9864 -111.4506 246° West 433 498 40,000  Level Salt Lake Center
Wed 10:24:45 PM 37.9389 -111.5908 247° West 434 499 40,000  Level Salt Lake Center
Wed 10:25:47 PM 37.8906 -111.7297 246° West 431 496 40,000  Level Salt Lake Center
Wed 10:26:49 PM 37.8411 -111.8692 246° West 434 499 40,000  Level Salt Lake Center
Wed 10:27:50 PM 37.7917 -112.0097 246° West 438 504 40,000  Level Salt Lake Center
Wed 10:28:52 PM 37.7339 -112.1783 247° West 437 503 40,000  Level Salt Lake Center
Wed 10:29:53 PM 37.6814 -112.3153 244° Southwest 434 499 40,000  Level Salt Lake Center
Wed 10:30:55 PM 37.6050 -112.4339 231° Southwest 433 498 40,000  Level Salt Lake Center
Wed 10:31:56 PM 37.5281 -112.5528 231° Southwest 434 499 40,000  Level Salt Lake Center
Wed 10:32:58 PM 37.4494 -112.6719 230° Southwest 435 501 40,000  Level Salt Lake Center
Wed 10:34:00 PM 37.3700 -112.7922 230° Southwest 438 504 40,000  Level Salt Lake Center
Wed 10:34:32 PM 37.3247 -112.8650 232° Southwest 438 504 40,000  Level Los Angeles Center
Wed 10:35:34 PM 37.2489 -112.9839 231° Southwest 435 501 40,000  Level Los Angeles Center
Wed 10:36:36 PM 37.1708 -113.1019 230° Southwest 436 502 40,000  Level Los Angeles Center
Wed 10:37:38 PM 37.0947 -113.2208 231° Southwest 437 503 40,000  Level Los Angeles Center
Wed 10:38:39 PM 37.0167 -113.3389 230° Southwest 439 505 40,000  Level Los Angeles Center
Wed 10:39:41 PM 36.9392 -113.4575 231° Southwest 442 509 40,000  Level Los Angeles Center
Wed 10:40:43 PM 36.8611 -113.5753 230° Southwest 440 506 40,000  Level Los Angeles Center
Wed 10:41:45 PM 36.7675 -113.7167 230° Southwest 441 507 40,000  Level Los Angeles Center
Wed 10:42:47 PM 36.6897 -113.8356 231° Southwest 443 510 40,000  Level Los Angeles Center
Wed 10:43:49 PM 36.6117 -113.9531 230° Southwest 442 509 40,000  Level Los Angeles Center
Wed 10:44:51 PM 36.5331 -114.0700 230° Southwest 442 509 40,000  Level Los Angeles Center
Wed 10:45:52 PM 36.4481 -114.1950 230° Southwest 444 511 40,000  Level Los Angeles Center
Wed 10:46:54 PM 36.3692 -114.3125 230° Southwest 443 510 40,000  Level Los Angeles Center
Wed 10:47:56 PM 36.2897 -114.4306 230° Southwest 443 510 40,000  Level Los Angeles Center
Wed 10:48:58 PM 36.2092 -114.5469 229° Southwest 443 510 40,000  Level Los Angeles Center
Wed 10:50:00 PM 36.1303 -114.6636 230° Southwest 442 509 40,000  Level Los Angeles Center
Wed 10:51:02 PM 36.0500 -114.7800 230° Southwest 442 509 40,000  Level Los Angeles Center
Wed 10:52:04 PM 35.9519 -114.9208 229° Southwest 446 513 40,000  Level Los Angeles Center
Wed 10:53:05 PM 35.8678 -115.0331 227° Southwest 443 510 40,000  Level Los Angeles Center
Wed 10:54:07 PM 35.7842 -115.1472 228° Southwest 444 511 40,000  Level Los Angeles Center
Wed 10:55:09 PM 35.6997 -115.2631 228° Southwest 449 517 40,000  Level Los Angeles Center
Wed 10:56:11 PM 35.6158 -115.3772 228° Southwest 449 517 40,000  Level Los Angeles Center
Wed 10:57:13 PM 35.5314 -115.4906 228° Southwest 448 516 40,000  Level Los Angeles Center
Wed 10:58:15 PM 35.4394 -115.6136 227° Southwest 447 514 40,000 -634 Level Los Angeles Center
Wed 10:59:16 PM 35.3539 -115.7258 227° Southwest 451 519 38,700 -1,306 Descending Los Angeles Center
Wed 11:00:19 PM 35.2689 -115.8400 228° Southwest 454 522 37,300 -1,306 Descending Los Angeles Center
Wed 11:01:20 PM 35.1844 -115.9514 227° Southwest 446 513 36,000 -1,268 Descending Los Angeles Center
Wed 11:02:22 PM 35.0997 -116.0644 228° Southwest 449 517 34,700 -1,268 Descending Los Angeles Center
Wed 11:03:23 PM 35.0064 -116.1667 222° Southwest 450 518 33,400 -1,268 Descending Los Angeles Center
Wed 11:04:25 PM 34.9103 -116.2675 221° Southwest 454 522 32,100 -1,403 Descending Los Angeles Center
Wed 11:05:27 PM 34.7925 -116.3908 221° Southwest 461 531 30,500 -1,403 Descending Los Angeles Center
Wed 11:06:29 PM 34.6961 -116.4925 221° Southwest 459 528 29,200 -1,317 Descending Los Angeles Center
Wed 11:07:30 PM 34.5994 -116.5925 220° Southwest 454 522 27,800 -1,415 Descending Los Angeles Center
Wed 11:08:32 PM 34.5225 -116.6733 221° Southwest 456 525 26,300 -1,790 Descending Los Angeles Center
Wed 11:09:34 PM 34.4047 -116.7958 221° Southwest 465 535 24,100 -1,951 Descending Los Angeles Center
Wed 11:10:35 PM 34.3078 -116.8964 221° Southwest 460 529 22,300 -1,756 Descending Los Angeles Center
Wed 11:11:37 PM 34.2131 -116.9964 221° Southwest 453 521 20,500 -1,597 Descending Los Angeles Center
Wed 11:12:39 PM 34.1147 -117.1011 221° Southwest 400 460 19,000 -1,459 Descending Los Angeles Center
Wed 11:13:28 PM 34.0833 -117.1833 245° Southwest 338 389 17,800 -1,541 Descending Southern California TRACON
Wed 11:14:28 PM 34.0500 -117.2833 248° West 326 375 16,200 -1,550 Descending Southern California TRACON
Wed 11:15:28 PM 34.0333 -117.4000 260° West 341 392 14,700 -1,550 Descending Southern California TRACON
Wed 11:16:28 PM 34.0167 -117.5000 259° West 318 366 13,100 -1,579 Descending Southern California TRACON
Wed 11:17:22 PM 34.0167 -117.6000 270° West 421 484 11,700 -1,500 Descending Southern California TRACON
Wed 11:18:28 PM 34.0000 -117.7167 260° West 282 325 10,100 -1,381 Descending Southern California TRACON
Wed 11:19:28 PM 34.0000 -117.8167 270° West 269 310 8,800 -1,200 Descending Southern California TRACON
Wed 11:20:28 PM 33.9833 -117.8833 253° West 249 287 7,700 -1,140 Descending Southern California TRACON
Wed 11:21:29 PM 33.9833 -117.9833 270° West 250 288 6,500 -1,148 Descending Southern California TRACON
Wed 11:22:23 PM 33.9667 -118.0500 253° West 253 291 5,500 -1,211 Descending Southern California TRACON
Wed 11:23:23 PM 33.9667 -118.1333 270° West 233 268 4,200 -1,149 Descending Southern California TRACON
Wed 11:23:57 PM 33.9619 -118.1586 257° West 231 266 3,700 -750 Descending Los Angeles Center
Wed 11:24:59 PM 33.9550 -118.2161 262° West 183 211 3,000 -878 Descending Los Angeles Center
Wed 11:26:00 PM 33.9481 -118.2889 263° West 183 211 1,900 -1,024 Descending Los Angeles Center
Wed 11:27:02 PM 33.9425 -118.3386 262° West 165 190 900 -774 Descending Los Angeles Center
Wed 11:28:04 PM 33.9386 -118.3817 264° West 143 165 300 -581 Descending Los Angeles Center
Wed 11:30:00 PM 33.9333 -118.4000 259° West  Level FlightAware Approximate
Wed 11:37:00 PM 33.9425 -118.4081 259° West  Level Estimated
Wed 11:38:00 PM 33.9425 -118.4081 259° West  Level Estimated
Wed 11:39:00 PM 33.9425 -118.4081 259° West  Level Estimated
Wed 11:40:00 PM 33.9425 -118.4081 259° West  Level Estimated
Wed 11:41:00 PM 33.9425 -118.4081 259° West  Level Estimated
Wed 11:42:00 PM 33.9425 -118.4081 259° West  Level Estimated
Wed 11:43:00 PM 33.9425 -118.4081 259° West  Level Estimated
Wed 11:44:00 PM 33.9425 -118.4081 259° West  Level Estimated
Wed 11:45:00 PM 33.9425 -118.4081 259° West  Level Estimated

Login

Don't have an account? Register now (free) for customized features, flight alerts, and more!